Time;durP1;ratioP1;P1;durP2;ratioP2;P2;SDS_P1;SDS_P2;PMS_P1;PMS_P2;Temp;Humidity;BMP_temperature;BMP_pressure;BME280_temperature;BME280_humidity;BME280_pressure;Samples;Min_cycle;Max_cycle;Signal;HPM_P1;HPM_P2
2022/10/20 00:01:35;;;;;;;1.60;1.07;;;3.30;99.90;3.00;101576.00;;;;4946104;28;92884;-62
2022/10/20 00:04:00;;;;;;;2.53;1.87;;;3.20;99.90;2.90;101575.00;;;;4945477;28;99628;-62
2022/10/20 00:06:30;;;;;;;2.10;1.40;;;3.70;99.90;2.90;101578.00;;;;4946806;28;94068;-61
2022/10/20 00:08:58;;;;;;;1.40;1.30;;;3.20;99.90;2.80;101584.00;;;;4949893;28;93005;-61
2022/10/20 00:11:26;;;;;;;2.80;1.27;;;3.60;99.90;2.80;101597.00;;;;4951850;28;91910;-62
2022/10/20 00:13:53;;;;;;;3.33;1.73;;;3.10;99.90;2.80;101588.00;;;;4941480;28;92886;-62
2022/10/20 00:16:20;;;;;;;1.53;1.37;;;3.10;99.90;2.70;101582.00;;;;4947911;28;93521;-61
2022/10/20 00:18:46;;;;;;;1.67;1.27;;;3.00;99.90;2.70;101580.00;;;;4948932;28;94086;-61
2022/10/20 00:21:18;;;;;;;1.53;1.20;;;3.00;99.90;2.70;101571.00;;;;4945457;28;99825;-62
2022/10/20 00:23:44;;;;;;;2.03;1.63;;;2.90;99.90;2.60;101565.00;;;;4942366;28;92728;-61
2022/10/20 00:26:22;;;;;;;3.10;1.50;;;2.90;99.90;2.60;101562.00;;;;4946078;28;93027;-62
2022/10/20 00:28:49;;;;;;;2.00;1.20;;;2.90;99.90;2.50;101557.00;;;;4945254;28;93044;-62
2022/10/20 00:31:16;;;;;;;2.57;1.50;;;2.90;99.90;2.50;101564.00;;;;4949248;28;92696;-62
2022/10/20 00:33:42;;;;;;;1.47;1.37;;;3.40;99.90;2.50;101565.00;;;;4951799;28;93034;-62
2022/10/20 00:36:11;;;;;;;1.93;1.43;;;2.80;99.90;2.40;101564.00;;;;4947084;28;117376;-61
2022/10/20 00:38:37;;;;;;;1.37;1.00;;;2.80;99.90;2.40;101559.00;;;;4946715;28;93981;-62
2022/10/20 00:41:03;;;;;;;3.13;1.80;;;2.70;99.90;2.40;101555.00;;;;4949863;28;92937;-62
2022/10/20 00:43:54;;;;;;;1.40;1.30;;;2.70;99.90;2.40;101559.00;;;;4942671;28;94084;-61
2022/10/20 00:46:40;;;;;;;0.70;0.70;;;2.70;99.90;2.40;101548.00;;;;4952272;28;94095;-61
2022/10/20 00:49:17;;;;;;;2.37;1.67;;;2.70;99.90;2.50;101555.00;;;;4946511;28;92863;-61
2022/10/20 00:51:43;;;;;;;1.70;1.00;;;2.70;99.90;2.50;101533.00;;;;4952981;28;93548;-60
2022/10/20 00:54:15;;;;;;;1.63;1.53;;;2.80;99.90;2.50;101528.00;;;;4953742;28;109110;-60
2022/10/20 00:56:43;;;;;;;1.73;1.63;;;2.80;99.90;2.60;101547.00;;;;4950513;28;112659;-61
2022/10/20 00:59:11;;;;;;;2.10;1.20;;;2.90;99.90;2.60;101536.00;;;;4951976;28;93821;-60
2022/10/20 01:01:38;;;;;;;3.10;1.53;;;2.80;99.90;2.60;101538.00;;;;4962377;28;110810;-60
2022/10/20 01:04:05;;;;;;;1.67;1.53;;;2.90;99.90;2.70;101528.00;;;;4946797;28;95866;-60
2022/10/20 01:06:30;;;;;;;1.57;1.47;;;2.90;99.90;2.70;101535.00;;;;4950041;28;111838;-60
2022/10/20 01:08:57;;;;;;;1.13;1.07;;;2.90;99.90;2.70;101529.00;;;;4948992;28;123466;-60
2022/10/20 01:12:06;;;;;;;2.23;2.03;;;3.00;99.90;2.70;101530.00;;;;4942683;28;109958;-62
2022/10/20 01:15:20;;;;;;;1.40;1.30;;;3.00;99.90;2.70;101534.00;;;;4953744;28;92733;-62
2022/10/20 01:18:08;;;;;;;2.60;1.60;;;3.00;99.90;2.70;101525.00;;;;4941709;28;92872;-62
2022/10/20 01:21:03;;;;;;;3.87;2.33;;;2.90;99.90;2.70;101517.00;;;;4951377;28;92764;-62
2022/10/20 01:23:53;;;;;;;2.80;2.03;;;3.00;99.90;2.70;101521.00;;;;4947675;28;92940;-62
2022/10/20 01:26:24;;;;;;;4.67;2.80;;;3.00;99.90;2.80;101511.00;;;;4945670;28;92832;-62
2022/10/20 01:29:00;;;;;;;1.90;1.70;;;3.00;99.90;2.80;101511.00;;;;4952647;28;94211;-62
2022/10/20 01:31:52;;;;;;;2.07;1.87;;;2.80;99.90;2.80;101495.00;;;;4971726;28;93182;-62
2022/10/20 01:34:36;;;;;;;4.87;2.67;;;3.10;99.90;2.90;101492.00;;;;4953250;28;92869;-62
2022/10/20 01:37:47;;;;;;;1.70;1.30;;;3.10;99.90;2.90;101490.00;;;;4952247;28;93844;-62
2022/10/20 01:40:42;;;;;;;1.63;1.53;;;3.10;99.90;2.90;101495.00;;;;4959763;28;113606;-62
2022/10/20 01:43:12;;;;;;;1.70;1.60;;;3.20;99.90;2.90;101494.00;;;;4963724;28;92892;-62
2022/10/20 01:45:42;;;;;;;3.63;2.17;;;3.10;99.90;2.80;101492.00;;;;4957167;28;102540;-62
2022/10/20 01:48:11;;;;;;;1.90;1.67;;;3.10;99.90;2.80;101484.00;;;;4942816;28;94331;-63
2022/10/20 01:50:39;;;;;;;1.93;1.73;;;3.10;99.90;2.80;101479.00;;;;4951214;28;93225;-63
2022/10/20 01:53:07;;;;;;;4.03;2.13;;;3.10;99.90;2.80;101479.00;;;;4947378;28;116774;-63
2022/10/20 01:55:35;;;;;;;3.27;2.13;;;3.00;99.90;2.70;101478.00;;;;4950161;28;92244;-63
2022/10/20 01:58:27;;;;;;;4.90;2.00;;;3.00;99.90;2.70;101471.00;;;;4952724;28;92853;-63
2022/10/20 02:00:58;;;;;;;3.17;2.37;;;3.00;99.90;2.80;101469.00;;;;4948777;28;120455;-63
2022/10/20 02:03:37;;;;;;;2.03;1.83;;;3.00;99.90;2.80;101467.00;;;;4950254;28;103294;-63
2022/10/20 02:06:23;;;;;;;2.53;1.40;;;3.00;99.90;2.70;101458.00;;;;4948685;28;93137;-63
2022/10/20 02:08:57;;;;;;;1.63;1.53;;;3.00;99.90;2.70;101450.00;;;;4947388;28;93086;-63
2022/10/20 02:11:47;;;;;;;2.70;1.67;;;3.00;99.90;2.70;101450.00;;;;4951808;28;116307;-63
2022/10/20 02:14:16;;;;;;;3.23;1.80;;;3.00;99.90;2.70;101441.00;;;;4966271;28;93744;-63
2022/10/20 02:16:50;;;;;;;2.37;1.90;;;2.90;99.90;2.70;101438.00;;;;4963891;28;104482;-63
2022/10/20 02:19:20;;;;;;;4.83;2.40;;;3.00;99.90;2.70;101432.00;;;;4949721;28;99729;-63
2022/10/20 02:21:47;;;;;;;1.60;1.50;;;2.90;99.90;2.70;101434.00;;;;4946264;28;110280;-63
2022/10/20 02:24:15;;;;;;;2.80;2.27;;;3.00;99.90;2.70;101441.00;;;;4951401;28;92810;-63
2022/10/20 02:26:42;;;;;;;2.07;1.87;;;2.90;99.90;2.70;101443.00;;;;4951768;28;99742;-63
2022/10/20 02:29:18;;;;;;;2.50;2.27;;;3.00;99.90;2.70;101426.00;;;;4944905;28;94077;-63
2022/10/20 02:31:45;;;;;;;2.10;1.93;;;3.00;99.90;2.80;101437.00;;;;4948559;28;93269;-63
2022/10/20 02:34:11;;;;;;;2.13;1.90;;;3.00;99.90;2.80;101437.00;;;;4950448;28;121906;-63
2022/10/20 02:36:42;;;;;;;2.43;2.07;;;3.00;99.90;2.70;101430.00;;;;4946332;28;110130;-63
2022/10/20 02:39:09;;;;;;;1.47;1.30;;;3.00;99.90;2.70;101413.00;;;;4950790;28;92870;-63
2022/10/20 02:41:35;;;;;;;2.50;2.30;;;3.00;99.90;2.70;101402.00;;;;4951141;28;93678;-63
2022/10/20 02:44:01;;;;;;;2.43;2.23;;;3.10;99.90;2.70;101403.00;;;;4944702;28;122326;-63
2022/10/20 02:46:27;;;;;;;4.93;2.40;;;3.00;99.90;2.70;101408.00;;;;4952382;28;92155;-63
2022/10/20 02:48:53;;;;;;;1.70;1.23;;;3.00;99.90;2.70;101396.00;;;;4946823;28;108569;-63
2022/10/20 02:51:19;;;;;;;2.97;2.47;;;3.00;99.90;2.70;101395.00;;;;4941639;28;123672;-63
2022/10/20 02:53:45;;;;;;;3.53;2.13;;;3.00;99.90;2.60;101399.00;;;;4948978;28;99924;-63
2022/10/20 02:56:10;;;;;;;2.97;2.67;;;2.90;99.90;2.70;101394.00;;;;4950130;28;110513;-63
2022/10/20 02:58:36;;;;;;;2.73;2.53;;;2.90;99.90;2.60;101397.00;;;;4946110;28;93024;-63
2022/10/20 03:01:03;;;;;;;2.30;2.10;;;2.90;99.90;2.60;101402.00;;;;4949226;28;123641;-63
2022/10/20 03:03:29;;;;;;;2.33;2.13;;;3.00;99.90;2.60;101395.00;;;;4946454;28;94521;-63
2022/10/20 03:05:55;;;;;;;2.30;1.70;;;2.80;99.90;2.50;101405.00;;;;4947109;28;112471;-63
2022/10/20 03:08:21;;;;;;;3.03;1.87;;;2.80;99.90;2.50;101392.00;;;;4950595;28;93017;-63
2022/10/20 03:10:46;;;;;;;2.70;2.13;;;2.80;99.90;2.50;101388.00;;;;4944619;28;92631;-63
2022/10/20 03:13:14;;;;;;;1.90;1.80;;;2.80;99.90;2.40;101390.00;;;;4941742;28;113728;-63
2022/10/20 03:15:40;;;;;;;2.77;1.70;;;2.70;99.90;2.40;101391.00;;;;4951424;28;93131;-64
2022/10/20 03:18:06;;;;;;;1.67;1.57;;;2.70;99.90;2.40;101387.00;;;;4949793;28;109036;-64
2022/10/20 03:20:32;;;;;;;1.60;1.50;;;2.70;99.90;2.40;101390.00;;;;4942489;28;94259;-63
2022/10/20 03:22:58;;;;;;;1.67;1.57;;;2.60;99.90;2.40;101391.00;;;;4951842;28;92948;-63
2022/10/20 03:25:24;;;;;;;3.57;1.80;;;2.60;99.90;2.40;101387.00;;;;4942902;28;92756;-63
2022/10/20 03:27:49;;;;;;;4.57;2.73;;;2.70;99.90;2.40;101393.00;;;;4945770;28;92954;-64
2022/10/20 03:30:15;;;;;;;1.77;1.63;;;2.70;99.90;2.40;101384.00;;;;4951145;28;121496;-63
2022/10/20 03:32:41;;;;;;;2.93;2.03;;;2.70;99.90;2.40;101372.00;;;;4961119;28;94737;-64
2022/10/20 03:35:07;;;;;;;2.73;1.70;;;2.70;99.90;2.40;101376.00;;;;4945752;28;110392;-63
2022/10/20 03:37:33;;;;;;;3.20;1.80;;;2.70;99.90;2.40;101372.00;;;;4951374;28;92963;-63
2022/10/20 03:39:59;;;;;;;2.57;2.17;;;2.70;99.90;2.40;101369.00;;;;4950180;28;95983;-63
2022/10/20 03:42:24;;;;;;;2.90;2.60;;;2.70;99.90;2.40;101363.00;;;;4950205;28;121746;-63
2022/10/20 03:44:50;;;;;;;2.17;1.60;;;2.70;99.90;2.50;101366.00;;;;4944804;28;111386;-63
2022/10/20 03:47:16;;;;;;;2.80;2.50;;;2.80;99.90;2.50;101367.00;;;;4943862;28;108466;-64
2022/10/20 03:49:41;;;;;;;3.50;2.10;;;2.70;99.90;2.50;101372.00;;;;4945451;28;121933;-64
2022/10/20 03:52:07;;;;;;;1.63;1.40;;;2.70;99.90;2.50;101362.00;;;;4950230;28;122074;-64
2022/10/20 03:54:35;;;;;;;4.40;2.60;;;2.70;99.90;2.50;101368.00;;;;4946770;28;111174;-63
2022/10/20 03:57:00;;;;;;;4.00;2.03;;;2.80;99.90;2.50;101360.00;;;;4944941;28;93100;-63
2022/10/20 03:59:26;;;;;;;2.73;2.37;;;2.80;99.90;2.60;101362.00;;;;4947473;28;120953;-63
2022/10/20 04:01:53;;;;;;;2.40;1.80;;;2.80;99.90;2.60;101361.00;;;;4945955;28;121738;-64
2022/10/20 04:04:19;;;;;;;5.70;3.07;;;2.80;99.90;2.60;101348.00;;;;4949514;28;110070;-64
2022/10/20 04:06:44;;;;;;;4.47;2.63;;;2.80;99.90;2.70;101356.00;;;;4950022;28;108290;-63
2022/10/20 04:09:10;;;;;;;4.70;2.83;;;2.90;99.90;2.70;101360.00;;;;4950313;28;123494;-64
2022/10/20 04:11:36;;;;;;;3.03;2.73;;;2.90;99.90;2.70;101356.00;;;;4950275;28;93255;-63
2022/10/20 04:14:01;;;;;;;4.17;3.23;;;3.00;99.90;2.70;101348.00;;;;4950147;28;109701;-63
2022/10/20 04:16:27;;;;;;;4.13;3.20;;;3.00;99.90;2.70;101358.00;;;;4947467;28;92913;-63
2022/10/20 04:18:54;;;;;;;4.47;3.17;;;3.00;99.90;2.80;101366.00;;;;4948227;28;123918;-63
2022/10/20 04:21:20;;;;;;;5.43;2.73;;;3.00;99.90;2.80;101361.00;;;;4952909;28;93069;-63
2022/10/20 04:23:46;;;;;;;4.53;2.80;;;3.00;99.90;2.80;101356.00;;;;4948791;28;109231;-63
2022/10/20 04:26:14;;;;;;;3.90;2.83;;;3.00;99.90;2.80;101359.00;;;;4940310;28;108936;-63
2022/10/20 04:28:40;;;;;;;3.37;3.07;;;3.10;99.90;2.80;101361.00;;;;4942094;28;112149;-63
2022/10/20 04:31:07;;;;;;;8.03;4.33;;;3.10;99.90;2.80;101364.00;;;;4943521;28;122491;-62
2022/10/20 04:33:33;;;;;;;4.27;3.87;;;3.10;99.90;2.80;101356.00;;;;4950210;28;93025;-63
2022/10/20 04:36:05;;;;;;;6.37;3.97;;;3.10;99.90;2.80;101349.00;;;;4955111;28;92694;-63
2022/10/20 04:38:32;;;;;;;8.23;4.27;;;3.10;99.90;2.90;101338.00;;;;4948791;28;93912;-63
2022/10/20 04:41:00;;;;;;;4.57;4.17;;;3.10;99.90;2.90;101341.00;;;;4953114;28;93301;-63
2022/10/20 04:43:26;;;;;;;6.63;4.67;;;3.20;99.90;3.00;101345.00;;;;4953694;28;93221;-63
2022/10/20 04:45:57;;;;;;;6.97;4.20;;;3.20;99.90;3.00;101331.00;;;;4949401;28;92817;-63
2022/10/20 04:48:23;;;;;;;6.37;4.37;;;3.20;99.90;3.00;101340.00;;;;4945328;28;93104;-64
2022/10/20 04:51:08;;;;;;;4.57;3.63;;;3.20;99.90;3.00;101344.00;;;;4943304;28;93037;-64
2022/10/20 04:53:35;;;;;;;3.60;3.30;;;3.20;99.90;3.10;101331.00;;;;4952591;28;92804;-63
2022/10/20 04:56:01;;;;;;;3.97;2.90;;;3.30;99.90;3.10;101328.00;;;;4953206;28;101014;-63
2022/10/20 04:58:27;;;;;;;5.77;4.50;;;3.30;99.90;3.10;101316.00;;;;4949047;28;92938;-63
2022/10/20 05:00:53;;;;;;;4.67;3.60;;;3.30;99.90;3.10;101316.00;;;;4948851;28;94332;-63
2022/10/20 05:03:19;;;;;;;4.53;3.20;;;3.30;99.90;3.10;101299.00;;;;4951532;28;110572;-63
2022/10/20 05:05:46;;;;;;;4.10;3.73;;;3.30;99.90;3.10;101295.00;;;;4952471;28;94353;-63
2022/10/20 05:08:12;;;;;;;4.40;3.60;;;3.30;99.90;3.00;101293.00;;;;4947515;28;93949;-64
2022/10/20 05:10:37;;;;;;;5.33;3.20;;;3.30;99.90;3.00;101288.00;;;;4953786;28;121978;-64
2022/10/20 05:13:03;;;;;;;3.33;3.07;;;3.30;99.90;3.00;101294.00;;;;4960580;28;109114;-64
2022/10/20 05:15:29;;;;;;;4.77;3.40;;;3.20;99.90;3.00;101296.00;;;;4953922;28;110000;-64
2022/10/20 05:17:54;;;;;;;5.80;3.63;;;3.20;99.90;3.00;101296.00;;;;4951588;28;121936;-64
2022/10/20 05:20:20;;;;;;;5.83;4.77;;;3.20;99.90;3.00;101282.00;;;;4946907;28;122840;-64
2022/10/20 05:22:46;;;;;;;4.37;3.60;;;3.20;99.90;3.00;101286.00;;;;4947804;28;110709;-63
2022/10/20 05:25:11;;;;;;;3.30;3.00;;;3.20;99.90;2.90;101285.00;;;;4947802;28;107776;-63
2022/10/20 05:27:37;;;;;;;2.73;2.33;;;3.20;99.90;2.90;101287.00;;;;4945304;28;123005;-64
2022/10/20 05:30:03;;;;;;;4.27;3.83;;;3.20;99.90;2.90;101296.00;;;;4951100;28;122351;-63
2022/10/20 05:32:29;;;;;;;4.43;4.03;;;3.20;99.90;2.90;101289.00;;;;4952039;28;100543;-63
2022/10/20 05:34:54;;;;;;;4.03;3.73;;;3.20;99.90;2.90;101296.00;;;;4944976;28;109065;-64
2022/10/20 05:37:20;;;;;;;4.10;3.70;;;3.20;99.90;2.90;101287.00;;;;4949163;28;120774;-63
2022/10/20 05:39:46;;;;;;;3.40;3.10;;;3.10;99.90;2.90;101294.00;;;;4951552;28;121947;-63
2022/10/20 05:42:11;;;;;;;6.37;4.37;;;3.20;99.90;2.90;101285.00;;;;4944766;28;111694;-63
2022/10/20 05:44:37;;;;;;;4.17;3.10;;;3.20;99.90;2.90;101289.00;;;;4941832;28;108856;-63
2022/10/20 05:47:03;;;;;;;3.73;3.43;;;3.10;99.90;2.90;101295.00;;;;4954000;28;124081;-63
2022/10/20 05:49:28;;;;;;;3.60;3.27;;;3.20;99.90;2.90;101292.00;;;;4947957;28;123628;-63
2022/10/20 05:51:54;;;;;;;4.17;3.60;;;3.20;99.90;3.00;101300.00;;;;4957526;28;92830;-63
2022/10/20 05:54:20;;;;;;;5.03;4.20;;;3.20;99.90;3.00;101290.00;;;;4954048;28;108543;-63
2022/10/20 05:56:45;;;;;;;6.47;3.60;;;3.20;99.90;3.10;101305.00;;;;4950787;28;92859;-63
2022/10/20 05:59:12;;;;;;;4.70;4.20;;;3.30;99.90;3.20;101310.00;;;;4949970;28;121361;-63
2022/10/20 06:01:46;;;;;;;5.73;4.30;;;3.30;99.90;3.30;101305.00;;;;4945543;28;95692;-63
2022/10/20 06:04:16;;;;;;;5.90;3.47;;;3.90;99.90;3.40;101303.00;;;;4947023;28;92700;-63
2022/10/20 06:06:42;;;;;;;5.37;4.27;;;3.50;99.90;3.50;101302.00;;;;4946386;28;94060;-63
2022/10/20 06:09:09;;;;;;;5.37;3.67;;;3.70;99.90;3.60;101299.00;;;;4943581;28;93947;-63
2022/10/20 06:11:36;;;;;;;6.13;4.93;;;3.70;99.90;3.70;101308.00;;;;4944805;28;103222;-63
2022/10/20 06:14:03;;;;;;;8.90;4.33;;;3.90;99.90;3.90;101306.00;;;;4951670;28;92865;-63
2022/10/20 06:16:29;;;;;;;4.80;4.13;;;4.00;99.90;4.00;101310.00;;;;4948933;28;94041;-63
2022/10/20 06:18:56;;;;;;;8.30;5.30;;;4.70;99.90;4.10;101317.00;;;;4945862;28;93660;-63
2022/10/20 06:21:29;;;;;;;4.67;3.80;;;4.30;99.90;4.20;101314.00;;;;4951506;28;93041;-63
2022/10/20 06:23:57;;;;;;;7.70;4.50;;;4.40;99.90;4.20;101312.00;;;;4949146;28;93200;-63
2022/10/20 06:26:31;;;;;;;5.07;4.63;;;4.40;99.90;4.30;101303.00;;;;4941300;28;112354;-63
2022/10/20 06:28:58;;;;;;;5.63;4.03;;;4.50;99.90;4.40;101307.00;;;;4939362;28;93080;-63
2022/10/20 06:31:42;;;;;;;5.73;5.13;;;4.60;99.90;4.60;101300.00;;;;4941707;28;93030;-63
2022/10/20 06:34:13;;;;;;;10.10;5.63;;;4.70;99.90;4.80;101312.00;;;;4948207;28;93731;-63
2022/10/20 06:36:40;;;;;;;7.37;5.87;;;4.90;99.90;4.90;101309.00;;;;4951436;28;93882;-63
2022/10/20 06:39:10;;;;;;;8.33;5.13;;;5.00;99.90;5.10;101322.00;;;;4947311;28;93124;-63
2022/10/20 06:41:36;;;;;;;7.90;5.10;;;5.60;99.90;5.10;101319.00;;;;4948777;28;92864;-61
2022/10/20 06:44:02;;;;;;;10.30;4.90;;;5.20;99.90;5.20;101322.00;;;;4950161;28;108977;-62
2022/10/20 06:46:34;;;;;;;5.30;4.27;;;5.40;99.90;5.40;101317.00;;;;4943805;28;121113;-62
2022/10/20 06:49:05;;;;;;;7.40;4.10;;;5.50;99.90;5.50;101316.00;;;;4944481;28;94356;-62
2022/10/20 06:51:32;;;;;;;5.23;4.13;;;5.70;99.90;5.70;101324.00;;;;4948488;28;92043;-63
2022/10/20 06:53:59;;;;;;;7.00;4.50;;;5.80;99.90;5.90;101324.00;;;;4948791;28;92812;-63
2022/10/20 06:56:28;;;;;;;5.70;3.53;;;6.00;99.90;6.10;101326.00;;;;4949907;28;93808;-62
2022/10/20 06:58:55;;;;;;;3.93;3.53;;;6.10;99.90;6.20;101336.00;;;;4947750;28;94559;-62
2022/10/20 07:01:26;;;;;;;4.20;3.77;;;6.30;99.90;6.40;101338.00;;;;4942442;28;92941;-62
2022/10/20 07:03:57;;;;;;;4.03;3.37;;;6.90;99.90;6.60;101345.00;;;;4948824;28;92757;-63
2022/10/20 07:06:34;;;;;;;3.93;3.33;;;6.70;99.90;6.80;101339.00;;;;4947331;28;94730;-62
2022/10/20 07:09:07;;;;;;;3.10;2.30;;;6.80;99.90;7.00;101338.00;;;;4947210;28;93200;-63
2022/10/20 07:11:33;;;;;;;3.37;2.77;;;7.00;99.90;7.20;101346.00;;;;4951853;28;92776;-63
2022/10/20 07:14:01;;;;;;;3.67;2.33;;;7.60;99.90;7.40;101350.00;;;;4951824;28;92846;-62
2022/10/20 07:16:30;;;;;;;4.43;3.10;;;7.50;99.90;7.70;101342.00;;;;4946620;28;93070;-63
2022/10/20 07:18:56;;;;;;;3.43;2.13;;;7.70;99.90;7.90;101346.00;;;;4948974;28;114174;-62
2022/10/20 07:21:25;;;;;;;2.80;2.60;;;7.90;99.90;8.10;101338.00;;;;4946161;28;92959;-62
2022/10/20 07:23:52;;;;;;;5.43;2.77;;;8.10;99.90;8.30;101340.00;;;;4939239;28;93929;-62
2022/10/20 07:26:30;;;;;;;5.07;2.80;;;8.30;99.90;8.40;101340.00;;;;4950076;28;112514;-61
2022/10/20 07:28:58;;;;;;;3.23;2.80;;;8.50;99.90;8.60;101343.00;;;;4944367;28;92927;-62
2022/10/20 07:31:34;;;;;;;3.17;2.53;;;8.70;99.90;8.80;101339.00;;;;4947967;28;103585;-63
2022/10/20 07:34:01;;;;;;;7.67;3.13;;;8.80;99.90;9.10;101340.00;;;;4951190;28;93055;-62
2022/10/20 07:36:33;;;;;;;4.57;3.90;;;9.00;99.90;9.30;101338.00;;;;4945781;28;94044;-62
2022/10/20 07:39:00;;;;;;;5.53;3.10;;;9.20;99.90;9.40;101338.00;;;;4950202;28;114950;-62
2022/10/20 07:41:27;;;;;;;3.50;3.20;;;9.40;99.90;9.60;101333.00;;;;4949887;28;91980;-61
2022/10/20 07:43:54;;;;;;;4.63;3.10;;;9.50;99.90;9.70;101338.00;;;;4942785;28;92770;-62
2022/10/20 07:46:20;;;;;;;3.00;2.80;;;9.70;99.90;9.90;101337.00;;;;4938110;28;93032;-62
2022/10/20 07:48:46;;;;;;;4.13;3.10;;;9.80;99.90;10.10;101330.00;;;;4941920;28;116230;-62
2022/10/20 07:51:13;;;;;;;4.60;2.10;;;10.00;99.90;10.20;101326.00;;;;4943178;28;109635;-63
2022/10/20 07:53:40;;;;;;;3.27;2.50;;;10.20;99.90;10.40;101323.00;;;;4953924;28;93099;-62
2022/10/20 07:56:06;;;;;;;3.20;1.70;;;10.40;99.90;10.60;101327.00;;;;4955304;28;92925;-62
2022/10/20 07:58:31;;;;;;;3.60;1.90;;;10.50;99.90;10.70;101330.00;;;;4949757;28;112954;-62
2022/10/20 08:00:57;;;;;;;5.70;2.13;;;10.70;99.90;10.80;101321.00;;;;4954294;28;109841;-61
2022/10/20 08:03:23;;;;;;;2.70;2.27;;;10.70;99.90;10.80;101314.00;;;;4951641;28;107902;-62
2022/10/20 08:05:48;;;;;;;2.97;2.23;;;10.80;99.90;11.00;101316.00;;;;4944154;28;121614;-62
2022/10/20 08:08:14;;;;;;;4.47;2.13;;;10.90;99.90;11.20;101312.00;;;;4937215;28;121544;-62
2022/10/20 08:10:39;;;;;;;3.43;2.37;;;11.10;99.90;11.40;101306.00;;;;4941574;28;110754;-62
2022/10/20 08:13:05;;;;;;;3.40;2.47;;;11.30;99.90;11.70;101302.00;;;;4949010;28;109127;-62
2022/10/20 08:15:31;;;;;;;4.83;1.93;;;11.50;99.90;11.90;101306.00;;;;4952084;28;121998;-62
2022/10/20 08:17:56;;;;;;;3.13;2.00;;;11.70;99.90;12.00;101305.00;;;;4951692;28;109880;-62
2022/10/20 08:20:22;;;;;;;2.73;2.07;;;12.00;99.90;12.20;101292.00;;;;4949370;28;109953;-62
2022/10/20 08:22:48;;;;;;;1.83;1.67;;;12.10;99.90;12.40;101301.00;;;;4950726;28;109455;-62
2022/10/20 08:25:14;;;;;;;2.00;1.43;;;12.30;99.90;12.70;101289.00;;;;4948524;28;121559;-62
2022/10/20 08:27:40;;;;;;;2.70;1.70;;;12.60;99.90;13.00;101290.00;;;;4942607;28;93677;-62
2022/10/20 08:30:06;;;;;;;2.23;1.70;;;12.80;99.90;13.20;101289.00;;;;4954990;28;105787;-62
2022/10/20 08:32:32;;;;;;;3.07;2.43;;;13.00;99.90;13.40;101293.00;;;;4941417;28;93031;-62
2022/10/20 08:34:58;;;;;;;1.33;1.13;;;13.20;99.90;13.50;101290.00;;;;4949739;28;123311;-62
2022/10/20 08:37:23;;;;;;;1.50;1.40;;;13.30;99.90;13.60;101291.00;;;;4952075;28;121838;-61
2022/10/20 08:39:49;;;;;;;2.43;1.67;;;13.50;99.90;13.80;101281.00;;;;4947393;28;110498;-62
2022/10/20 08:42:15;;;;;;;2.87;1.50;;;13.60;99.90;14.00;101279.00;;;;4945682;28;109755;-61
2022/10/20 08:44:45;;;;;;;2.13;1.47;;;13.80;99.90;14.20;101275.00;;;;4951474;28;121364;-61
2022/10/20 08:47:34;;;;;;;1.70;1.10;;;14.00;99.90;14.30;101269.00;;;;4961530;28;108403;-60
2022/10/20 08:50:03;;;;;;;2.63;1.90;;;14.30;99.90;14.40;101267.00;;;;4953396;28;101028;-60
2022/10/20 08:52:29;;;;;;;1.03;0.90;;;14.20;99.90;14.30;101273.00;;;;4952916;28;93026;-61
2022/10/20 08:54:56;;;;;;;1.47;1.20;;;14.20;99.90;14.20;101269.00;;;;4949034;28;93682;-62
2022/10/20 08:57:30;;;;;;;1.43;1.30;;;14.10;99.90;14.20;101265.00;;;;4952011;28;92954;-61
2022/10/20 09:00:18;;;;;;;1.43;1.33;;;14.10;99.90;14.30;101270.00;;;;4951775;28;93042;-60
2022/10/20 09:02:47;;;;;;;1.30;1.13;;;14.10;99.90;14.30;101254.00;;;;4950458;28;93700;-60
2022/10/20 09:05:14;;;;;;;2.87;1.27;;;14.20;99.90;14.20;101243.00;;;;4953398;28;93259;-60
2022/10/20 09:07:40;;;;;;;1.37;1.23;;;14.10;99.90;14.10;101247.00;;;;4945039;28;114508;-60
2022/10/20 09:10:14;;;;;;;1.00;0.90;;;14.10;99.00;14.00;101247.00;;;;4948698;28;93009;-60
2022/10/20 09:12:43;;;;;;;2.17;1.77;;;14.00;99.20;14.10;101241.00;;;;4952632;28;92941;-60
2022/10/20 09:15:15;;;;;;;1.13;1.00;;;14.00;99.40;14.10;101246.00;;;;4967463;28;93436;-59
2022/10/20 09:17:45;;;;;;;1.30;1.10;;;14.00;98.60;14.20;101243.00;;;;4950647;28;92967;-60
2022/10/20 09:20:37;;;;;;;1.97;1.67;;;14.00;98.40;14.30;101240.00;;;;4951471;28;92054;-60
2022/10/20 09:23:03;;;;;;;2.10;1.10;;;14.10;97.50;14.30;101240.00;;;;4946311;28;93079;-60
2022/10/20 09:25:29;;;;;;;2.20;1.57;;;14.20;97.40;14.50;101236.00;;;;4941581;28;115403;-59
2022/10/20 09:27:56;;;;;;;1.23;1.13;;;14.20;98.20;14.60;101221.00;;;;4948991;28;123351;-58
2022/10/20 09:30:32;;;;;;;2.03;1.43;;;14.40;96.80;14.80;101238.00;;;;4945728;28;92898;-59
2022/10/20 09:32:59;;;;;;;2.63;1.63;;;14.60;97.20;15.10;101234.00;;;;4952258;28;92989;-59
2022/10/20 09:35:24;;;;;;;1.30;1.20;;;14.80;96.00;15.30;101239.00;;;;4950568;28;93425;-59
2022/10/20 09:38:23;;;;;;;1.47;0.97;;;14.90;95.90;15.20;101237.00;;;;4947581;28;92741;-59
2022/10/20 09:41:09;;;;;;;1.37;1.27;;;15.10;94.40;15.30;101223.00;;;;4950586;28;92835;-60
2022/10/20 09:43:49;;;;;;;1.10;1.00;;;15.10;94.60;15.30;101214.00;;;;4962769;28;93006;-58
2022/10/20 09:46:21;;;;;;;1.40;1.30;;;15.20;94.10;15.40;101222.00;;;;4965026;28;93203;-60
2022/10/20 09:48:49;;;;;;;4.27;1.03;;;15.20;92.90;15.30;101214.00;;;;4945373;28;93171;-60
2022/10/20 09:51:21;;;;;;;1.83;1.40;;;15.20;93.00;15.30;101213.00;;;;4949916;28;93205;-59
2022/10/20 09:54:00;;;;;;;3.50;1.07;;;16.40;92.60;15.40;101213.00;;;;4953838;28;93686;-60
2022/10/20 09:56:38;;;;;;;1.03;0.87;;;15.30;92.20;15.30;101220.00;;;;4949063;28;92795;-59
2022/10/20 09:59:29;;;;;;;1.25;1.15;;;15.30;89.90;15.50;101209.00;;;;4951851;28;110263;-59
2022/10/20 10:01:58;;;;;;;1.88;1.05;;;15.40;90.10;15.80;101206.00;;;;4965697;28;104771;-58
2022/10/20 10:04:37;;;;;;;0.73;0.70;;;15.60;88.40;16.10;101209.00;;;;4943943;28;92831;-59
2022/10/20 10:07:25;;;;;;;0.95;0.95;;;15.80;86.60;16.20;101214.00;;;;4953113;28;93125;-59
2022/10/20 10:10:04;;;;;;;0.77;0.77;;;16.00;83.00;16.40;101209.00;;;;4952649;28;93025;-59
2022/10/20 10:12:31;;;;;;;1.67;1.00;;;16.20;81.20;16.40;101194.00;;;;4953344;28;99994;-58
2022/10/20 10:15:00;;;;;;;5.15;1.33;;;16.30;79.30;16.50;101194.00;;;;4949404;28;108652;-60
2022/10/20 10:17:36;;;;;;;0.70;0.70;;;16.30;77.50;16.60;101195.00;;;;4948736;28;93558;-59
2022/10/20 10:20:11;;;;;;;1.20;0.73;;;16.40;78.90;16.70;101190.00;;;;4944322;28;93799;-60
2022/10/20 10:22:38;;;;;;;0.95;0.80;;;16.50;77.70;16.70;101187.00;;;;4947663;28;102246;-59
2022/10/20 10:25:06;;;;;;;0.77;0.55;;;16.60;74.50;16.70;101190.00;;;;4951686;28;98964;-58
2022/10/20 10:27:35;;;;;;;0.57;0.52;;;16.50;73.90;16.60;101181.00;;;;4943447;28;110600;-59
2022/10/20 10:30:27;;;;;;;2.30;0.73;;;16.50;75.00;16.50;101176.00;;;;4951365;28;92963;-59
2022/10/20 10:32:54;;;;;;;0.80;0.70;;;16.40;73.70;16.40;101176.00;;;;4947537;28;92656;-59
2022/10/20 10:35:32;;;;;;;0.57;0.57;;;16.30;73.90;16.30;101181.00;;;;4946116;28;92811;-59
2022/10/20 10:37:59;;;;;;;0.55;0.55;;;16.20;73.70;16.40;101175.00;;;;4951280;28;113797;-60
2022/10/20 10:40:39;;;;;;;2.75;1.23;;;16.30;73.90;16.40;101172.00;;;;4946493;28;121500;-60
2022/10/20 10:43:28;;;;;;;0.43;0.40;;;16.30;74.60;16.60;101169.00;;;;4952559;28;92807;-61
2022/10/20 10:46:07;;;;;;;0.70;0.70;;;16.10;73.70;16.60;101173.00;;;;4950150;28;93895;-60
2022/10/20 10:49:09;;;;;;;1.95;0.90;;;16.50;73.00;16.70;101169.00;;;;4943080;28;114998;-58
2022/10/20 10:51:55;;;;;;;1.25;0.63;;;16.50;73.50;16.80;101158.00;;;;4951415;28;93525;-56
2022/10/20 10:54:50;;;;;;;4.03;0.98;;;16.70;70.20;16.80;101146.00;;;;4948587;28;93156;-59
2022/10/20 10:57:58;;;;;;;0.93;0.70;;;16.70;69.10;16.90;101157.00;;;;4949712;28;92931;-60
2022/10/20 11:01:04;;;;;;;1.20;0.73;;;16.80;68.00;17.00;101134.00;;;;4948405;28;93232;-59
2022/10/20 11:04:07;;;;;;;1.65;1.00;;;16.90;67.30;16.90;101130.00;;;;4947429;28;107945;-57
2022/10/20 11:06:43;;;;;;;1.38;1.08;;;16.80;65.70;16.90;101121.00;;;;4978106;28;104307;-59
2022/10/20 11:09:35;;;;;;;3.25;1.02;;;16.80;66.40;17.20;101119.00;;;;4942831;28;93003;-57
2022/10/20 11:12:23;;;;;;;1.40;0.82;;;17.00;68.60;17.30;101109.00;;;;4946942;28;118700;-59